createdAt,value
2018-08-09T00:03:34.413Z,10.00
2018-08-09T00:08:37.443Z,9.40
2018-08-09T00:13:40.486Z,9.60
2018-08-09T00:18:43.509Z,9.70
2018-08-09T00:23:46.572Z,9.00
2018-08-09T00:28:49.646Z,9.77
2018-08-09T00:33:52.654Z,9.43
2018-08-09T00:38:55.705Z,10.00
2018-08-09T00:43:58.829Z,10.40
2018-08-09T00:49:02.017Z,9.30
2018-08-09T00:54:05.392Z,10.53
2018-08-09T00:59:08.450Z,10.30
2018-08-09T01:04:11.545Z,10.63
2018-08-09T01:09:15.441Z,10.77
2018-08-09T01:14:18.534Z,9.80
2018-08-09T01:19:21.666Z,10.97
2018-08-09T01:24:24.803Z,10.90
2018-08-09T01:29:27.797Z,10.70
2018-08-09T01:34:30.938Z,9.97
2018-08-09T01:39:34.027Z,10.23
2018-08-09T01:44:37.124Z,10.20
2018-08-09T01:49:40.250Z,11.60
2018-08-09T01:54:43.311Z,11.17
2018-08-09T01:59:46.373Z,11.20
2018-08-09T02:04:49.503Z,11.67
2018-08-09T02:09:52.458Z,9.60
2018-08-09T02:14:55.496Z,11.50
2018-08-09T02:19:58.598Z,12.07
2018-08-09T02:25:01.641Z,11.67
2018-08-09T02:30:05.747Z,12.27
2018-08-09T02:35:08.855Z,12.43
2018-08-09T02:40:11.875Z,11.47
2018-08-09T02:45:14.873Z,12.90
2018-08-09T02:50:17.956Z,12.60
2018-08-09T02:55:21.010Z,12.77
2018-08-09T03:00:24.154Z,14.17
2018-08-09T03:05:27.307Z,13.97
2018-08-09T03:10:30.373Z,13.30
2018-08-09T03:15:33.458Z,12.80
2018-08-09T03:20:36.509Z,13.40
2018-08-09T03:25:39.537Z,13.77
2018-08-09T03:30:42.617Z,14.17
2018-08-09T03:35:45.645Z,14.60
2018-08-09T03:40:48.672Z,16.23
2018-08-09T03:45:51.710Z,16.40
2018-08-09T03:50:54.717Z,16.93
2018-08-09T03:55:58.371Z,16.87
2018-08-09T04:01:01.446Z,18.87
2018-08-09T04:06:04.540Z,17.40
2018-08-09T04:11:07.540Z,17.80
2018-08-09T04:16:10.592Z,16.50
2018-08-09T04:21:13.669Z,18.63
2018-08-09T04:26:16.710Z,17.37
2018-08-09T04:31:19.724Z,15.93
2018-08-09T04:36:22.865Z,15.60
2018-08-09T04:41:25.925Z,15.03
2018-08-09T04:46:28.971Z,15.17
2018-08-09T04:51:32.030Z,15.77
2018-08-09T04:56:35.086Z,15.10
2018-08-09T05:01:38.199Z,14.47
2018-08-09T05:06:41.206Z,15.33
2018-08-09T05:11:44.614Z,17.63
2018-08-09T05:16:47.656Z,14.67
2018-08-09T05:21:51.521Z,15.10
2018-08-09T05:26:54.543Z,15.27
2018-08-09T05:31:57.606Z,15.47
2018-08-09T05:37:00.642Z,15.13
2018-08-09T05:42:03.694Z,16.10
2018-08-09T05:47:06.781Z,15.10
2018-08-09T05:52:09.840Z,15.93
2018-08-09T05:57:12.888Z,15.03
2018-08-09T06:02:16.079Z,15.37
2018-08-09T06:07:19.157Z,15.93
2018-08-09T06:12:22.174Z,16.30
2018-08-09T06:17:25.393Z,17.03
2018-08-09T06:22:28.512Z,17.27
2018-08-09T06:27:31.527Z,16.20
2018-08-09T06:32:34.630Z,17.20
2018-08-09T06:37:37.935Z,16.00
2018-08-09T06:42:42.257Z,17.33
2018-08-09T06:47:45.317Z,16.47
2018-08-09T06:52:48.412Z,14.60
2018-08-09T06:57:51.494Z,14.73
2018-08-09T07:02:54.556Z,14.33
2018-08-09T07:07:57.536Z,14.10
2018-08-09T07:13:00.621Z,13.80
2018-08-09T07:18:03.946Z,12.90
2018-08-09T07:23:07.054Z,11.97
2018-08-09T07:28:10.092Z,12.20
2018-08-09T07:33:13.165Z,10.00
2018-08-09T07:38:16.209Z,10.37
2018-08-09T07:43:19.217Z,9.80
2018-08-09T07:48:22.289Z,7.80
2018-08-09T07:53:25.323Z,9.67
2018-08-09T07:58:28.385Z,9.23
2018-08-09T08:03:31.525Z,9.63
2018-08-09T08:08:34.552Z,10.37
2018-08-09T08:13:37.646Z,10.10
2018-08-09T08:18:40.674Z,10.03
2018-08-09T08:23:43.748Z,9.87
2018-08-09T08:28:46.776Z,9.00
2018-08-09T08:33:49.788Z,10.73
2018-08-09T08:38:52.857Z,10.17
2018-08-09T08:43:55.874Z,10.67
2018-08-09T08:48:58.959Z,10.73
2018-08-09T08:54:02.039Z,11.87
2018-08-09T08:59:05.121Z,11.47
2018-08-09T09:04:08.244Z,12.80
2018-08-09T09:09:12.940Z,15.13
2018-08-09T09:14:15.981Z,15.70
2018-08-09T09:19:19.111Z,15.57
2018-08-09T09:24:22.086Z,19.77
2018-08-09T09:29:25.153Z,20.70
2018-08-09T09:34:28.215Z,21.93
2018-08-09T09:39:31.260Z,24.70
2018-08-09T09:44:34.883Z,25.10
2018-08-09T09:49:37.952Z,24.67
2018-08-09T09:54:40.972Z,24.93
2018-08-09T09:59:44.040Z,24.77
2018-08-09T10:04:47.446Z,24.70
2018-08-09T10:09:50.500Z,23.60
2018-08-09T10:14:53.543Z,22.60
2018-08-09T10:19:56.557Z,21.23
2018-08-09T10:24:59.564Z,25.83
2018-08-09T10:30:02.689Z,20.30
2018-08-09T10:35:05.733Z,19.57
2018-08-09T10:40:08.750Z,17.90
2018-08-09T10:45:12.573Z,18.47
2018-08-09T10:50:15.801Z,18.23
2018-08-09T10:55:18.833Z,15.57
2018-08-09T11:00:21.929Z,15.40
2018-08-09T11:05:25.109Z,15.30
2018-08-09T11:10:28.140Z,13.90
2018-08-09T11:15:31.238Z,14.67
2018-08-09T11:20:34.298Z,15.30
2018-08-09T11:25:37.316Z,16.57
2018-08-09T11:30:40.425Z,16.70
2018-08-09T11:35:43.614Z,16.40
2018-08-09T11:40:46.676Z,15.30
2018-08-09T11:45:49.777Z,16.00
2018-08-09T11:50:52.929Z,16.03
2018-08-09T11:55:55.994Z,14.43
2018-08-09T12:01:01.501Z,16.20
2018-08-09T12:06:04.573Z,13.90
2018-08-09T12:11:07.772Z,14.40
2018-08-09T12:16:11.386Z,12.67
2018-08-09T12:21:14.815Z,13.43
2018-08-09T12:26:17.924Z,11.20
2018-08-09T12:31:20.997Z,9.77
2018-08-09T12:36:24.038Z,9.40
2018-08-09T12:41:27.134Z,8.03
2018-08-09T12:46:30.215Z,9.07
2018-08-09T12:51:33.333Z,8.23
2018-08-09T12:56:36.650Z,8.43
2018-08-09T13:01:39.852Z,8.47
2018-08-09T13:06:43.092Z,8.33
2018-08-09T13:11:46.090Z,8.30
2018-08-09T13:16:49.189Z,8.33
2018-08-09T13:21:52.295Z,7.90
2018-08-09T13:26:55.347Z,7.70
2018-08-09T13:31:58.448Z,6.73
2018-08-09T13:37:01.724Z,7.20
2018-08-09T13:42:04.817Z,7.97
2018-08-09T13:47:07.890Z,7.20
2018-08-09T13:52:11.065Z,8.40
2018-08-09T13:57:14.458Z,7.70
2018-08-09T14:02:17.593Z,8.13
2018-08-09T14:07:20.691Z,7.30
2018-08-09T14:12:23.840Z,7.30
2018-08-09T14:17:26.888Z,8.10
2018-08-09T14:22:30.054Z,7.93
2018-08-09T14:27:33.285Z,7.83
2018-08-09T14:32:36.405Z,8.10
2018-08-09T14:37:40.236Z,6.80
2018-08-09T14:42:43.363Z,7.20
2018-08-09T14:47:46.548Z,7.43
2018-08-09T14:52:49.626Z,6.30
2018-08-09T14:57:52.824Z,7.03
2018-08-09T15:02:56.010Z,7.67
2018-08-09T15:07:59.131Z,7.20
2018-08-09T15:13:02.297Z,6.70
2018-08-09T15:18:05.541Z,6.17
2018-08-09T15:23:08.611Z,7.13
2018-08-09T15:28:11.709Z,7.30
2018-08-09T15:33:14.774Z,6.07
2018-08-09T15:38:17.899Z,5.93
2018-08-09T15:43:21.013Z,3.70
2018-08-09T15:48:24.900Z,4.63
2018-08-09T15:53:27.975Z,3.20
2018-08-09T15:58:31.388Z,4.00
2018-08-09T16:03:34.550Z,3.10
2018-08-09T16:08:38.831Z,3.07
2018-08-09T16:13:42.761Z,3.40
2018-08-09T16:18:47.445Z,2.60
2018-08-09T16:23:51.570Z,3.30
2018-08-09T16:28:55.967Z,2.30
2018-08-09T16:34:00.045Z,2.40
2018-08-09T16:39:08.845Z,2.43
2018-08-09T16:44:13.558Z,2.60
2018-08-09T16:49:16.761Z,2.60
2018-08-09T16:54:19.841Z,2.30
2018-08-09T16:59:22.915Z,3.10
2018-08-09T17:04:26.057Z,2.93
2018-08-09T17:09:29.216Z,3.00
2018-08-09T17:14:33.910Z,2.77
2018-08-09T17:19:37.034Z,2.57
2018-08-09T17:24:40.543Z,2.97
2018-08-09T17:29:46.783Z,3.13
2018-08-09T17:34:49.838Z,3.00
2018-08-09T17:39:53.004Z,3.23
2018-08-09T17:44:56.116Z,2.47
2018-08-09T17:49:59.390Z,2.80
2018-08-09T17:55:02.555Z,2.43
2018-08-09T18:00:15.391Z,1.97
2018-08-09T18:05:18.567Z,2.53
2018-08-09T18:10:24.246Z,2.47
2018-08-09T18:15:28.545Z,2.60
2018-08-09T18:20:34.989Z,1.80
2018-08-09T18:25:38.405Z,1.90
2018-08-09T18:30:41.894Z,1.97
2018-08-09T18:35:45.429Z,2.73
2018-08-09T18:40:49.056Z,2.77
2018-08-09T18:45:52.151Z,2.27
2018-08-09T18:50:56.465Z,2.63
2018-08-09T18:55:59.673Z,1.90
2018-08-09T19:01:02.871Z,3.27
2018-08-09T19:06:06.110Z,2.60
2018-08-09T19:11:09.205Z,2.90
2018-08-09T19:16:43.945Z,2.60
2018-08-09T19:21:46.970Z,2.67
2018-08-09T19:26:52.834Z,3.10
2018-08-09T19:31:56.261Z,2.47
2018-08-09T19:36:59.416Z,2.77
2018-08-09T19:42:02.587Z,2.70
2018-08-09T19:47:06.077Z,2.50
2018-08-09T19:52:09.131Z,2.57
2018-08-09T19:57:12.286Z,2.80
2018-08-09T20:02:15.405Z,3.00
2018-08-09T20:07:19.194Z,2.50
2018-08-09T20:12:22.272Z,2.87
2018-08-09T20:17:25.390Z,2.57
2018-08-09T20:22:28.482Z,2.97
2018-08-09T20:27:32.422Z,2.87
2018-08-09T20:40:15.061Z,2.30
2018-08-09T20:45:19.568Z,2.20
2018-08-09T20:50:25.181Z,2.70
2018-08-09T20:55:28.429Z,2.50
2018-08-09T21:00:33.192Z,2.10
2018-08-09T21:05:37.630Z,2.90
2018-08-09T21:10:40.683Z,2.80
2018-08-09T21:15:43.726Z,3.20
2018-08-09T21:20:46.786Z,3.20
2018-08-09T21:25:49.898Z,3.60
2018-08-09T21:30:52.978Z,3.20
2018-08-09T21:35:56.046Z,3.80
2018-08-09T21:40:59.124Z,3.97
2018-08-09T21:46:02.180Z,4.23
2018-08-09T21:51:05.288Z,5.10
2018-08-09T21:56:08.341Z,5.33
2018-08-09T22:01:13.008Z,5.30
2018-08-09T22:06:21.861Z,4.27
2018-08-09T22:11:30.699Z,3.17
2018-08-09T22:16:39.401Z,2.87
2018-08-09T22:21:47.938Z,2.33
2018-08-09T22:26:51.009Z,2.43
2018-08-09T22:31:54.053Z,1.70
2018-08-09T22:36:57.141Z,2.00
2018-08-09T22:42:00.234Z,2.20
2018-08-09T22:47:03.305Z,2.47
2018-08-09T22:52:06.475Z,2.60
2018-08-09T22:57:09.562Z,2.53
2018-08-09T23:02:12.650Z,2.70
2018-08-09T23:07:15.729Z,2.97
2018-08-09T23:12:18.816Z,2.27
2018-08-09T23:17:21.883Z,2.80
2018-08-09T23:22:24.997Z,2.50
2018-08-09T23:27:28.054Z,2.13
2018-08-09T23:32:31.182Z,1.83
2018-08-09T23:37:34.285Z,1.67
2018-08-09T23:42:37.857Z,1.40
2018-08-09T23:47:41.033Z,1.50
2018-08-09T23:52:44.201Z,1.90
2018-08-09T23:57:47.322Z,2.00
